Time;durP1;ratioP1;P1;durP2;ratioP2;P2;SDS_P1;SDS_P2;PMS_P1;PMS_P2;Temp;Humidity;BMP_temperature;BMP_pressure;BME280_temperature;BME280_humidity;BME280_pressure;Samples;Min_cycle;Max_cycle;Signal;HPM_P1;HPM_P2
2022/11/05 00:09:28;;;;;;;34.50;17.33;;;;;;;;;;5060601;28;20049;-62
2022/11/05 00:17:14;;;;;;;16.80;7.77;;;;;;;;;;5049327;28;20495;-63
2022/11/05 00:19:40;;;;;;;25.00;9.57;;;;;;;;;;5065140;28;20486;-62
2022/11/05 00:27:35;;;;;;;16.77;7.83;;;;;;;;;;5054056;28;20185;-62
2022/11/05 00:30:01;;;;;;;15.43;6.63;;;;;;;;;;5047713;28;20041;-62
2022/11/05 00:32:28;;;;;;;15.17;6.87;;;;;;;;;;5048249;28;20053;-62
2022/11/05 00:34:54;;;;;;;12.90;7.00;;;;;;;;;;5048757;28;20055;-62
2022/11/05 00:37:20;;;;;;;15.17;6.27;;;;;;;;;;5048806;28;20041;-62
2022/11/05 00:39:46;;;;;;;17.93;8.53;;;;;;;;;;5048417;28;20052;-62
2022/11/05 00:45:02;;;;;;;23.17;9.23;;;;;;;;;;5064188;28;20076;-62
2022/11/05 00:50:14;;;;;;;16.47;8.17;;;;;;;;;;5059761;28;20082;-63
2022/11/05 00:52:56;;;;;;;18.97;8.70;;;;;;;;;;5067834;28;20040;-62
2022/11/05 00:55:33;;;;;;;20.23;8.73;;;;;;;;;;5068035;28;20612;-62
2022/11/05 00:58:00;;;;;;;28.30;11.50;;;;;;;;;;5067563;28;20510;-63
2022/11/05 01:00:27;;;;;;;27.23;11.50;;;;;;;;;;5066990;28;20080;-63
2022/11/05 01:02:56;;;;;;;22.27;10.50;;;;;;;;;;5068478;28;20043;-62
2022/11/05 01:05:22;;;;;;;24.17;11.73;;;;;;;;;;5068049;28;20052;-62
2022/11/05 01:07:48;;;;;;;25.70;11.47;;;;;;;;;;5055961;28;20036;-62
2022/11/05 01:10:14;;;;;;;29.60;11.83;;;;;;;;;;5068401;28;20048;-62
2022/11/05 01:12:40;;;;;;;26.67;10.93;;;;;;;;;;5068334;28;20057;-62
2022/11/05 01:15:06;;;;;;;23.50;11.73;;;;;;;;;;5063474;28;20044;-62
2022/11/05 01:17:32;;;;;;;27.27;12.03;;;;;;;;;;5056440;28;20067;-62
2022/11/05 01:19:58;;;;;;;29.97;14.47;;;;;;;;;;5047611;28;20076;-63
2022/11/05 01:22:24;;;;;;;31.47;14.00;;;;;;;;;;5048272;28;20132;-62
2022/11/05 01:24:50;;;;;;;33.97;13.57;;;;;;;;;;5030367;28;20049;-62
2022/11/05 01:27:16;;;;;;;29.17;13.63;;;;;;;;;;5047036;28;20051;-62
2022/11/05 01:29:42;;;;;;;34.03;14.70;;;;;;;;;;5067826;28;20044;-62
2022/11/05 01:32:08;;;;;;;31.57;13.53;;;;;;;;;;5066304;28;20059;-62
2022/11/05 01:34:35;;;;;;;30.17;14.77;;;;;;;;;;5068891;28;20477;-62
2022/11/05 01:37:01;;;;;;;35.60;15.33;;;;;;;;;;5070381;28;20068;-63
2022/11/05 01:39:27;;;;;;;34.37;14.93;;;;;;;;;;5056832;28;20044;-62
2022/11/05 01:41:53;;;;;;;43.63;17.53;;;;;;;;;;5071762;28;20044;-62
2022/11/05 01:44:38;;;;;;;39.10;16.67;;;;;;;;;;5071737;28;20102;-62
2022/11/05 01:47:04;;;;;;;39.87;17.63;;;;;;;;;;5070082;28;20410;-63
2022/11/05 01:49:32;;;;;;;45.83;18.60;;;;;;;;;;5056433;28;20506;-62
2022/11/05 01:51:59;;;;;;;41.27;17.70;;;;;;;;;;5070149;28;20048;-62
2022/11/05 01:54:27;;;;;;;38.07;17.63;;;;;;;;;;5071381;28;20159;-62
2022/11/05 01:56:55;;;;;;;38.07;19.67;;;;;;;;;;5070338;28;20079;-63
2022/11/05 01:59:24;;;;;;;43.47;18.87;;;;;;;;;;5070825;28;20044;-63
2022/11/05 02:01:50;;;;;;;56.83;21.27;;;;;;;;;;5069067;28;20418;-63
2022/11/05 02:04:23;;;;;;;45.03;20.37;;;;;;;;;;5050030;28;20045;-63
2022/11/05 02:06:49;;;;;;;62.13;22.60;;;;;;;;;;5051503;28;20041;-64
2022/11/05 02:09:19;;;;;;;49.13;20.33;;;;;;;;;;5070891;28;20047;-63
2022/11/05 02:11:45;;;;;;;57.00;20.93;;;;;;;;;;5070609;28;20072;-63
2022/11/05 02:14:11;;;;;;;59.47;23.67;;;;;;;;;;5069858;28;20153;-63
2022/11/05 02:16:43;;;;;;;46.30;21.50;;;;;;;;;;5071106;28;20041;-63
2022/11/05 02:19:15;;;;;;;45.80;20.37;;;;;;;;;;5051042;28;20045;-63
2022/11/05 02:21:59;;;;;;;38.93;20.10;;;;;;;;;;5049798;28;20052;-63
2022/11/05 02:24:40;;;;;;;51.90;21.38;;;;;;;;;;5051079;28;20168;-63
2022/11/05 02:27:20;;;;;;;51.67;21.83;;;;;;;;;;5050041;28;20831;-64
2022/11/05 02:29:52;;;;;;;39.13;18.27;;;;;;;;;;5050520;28;20053;-63
2022/11/05 02:32:33;;;;;;;52.10;22.73;;;;;;;;;;5050996;28;20056;-63
2022/11/05 02:35:08;;;;;;;45.00;20.53;;;;;;;;;;5050710;28;20045;-64
2022/11/05 02:37:38;;;;;;;41.27;18.20;;;;;;;;;;5056808;28;20749;-63
2022/11/05 02:40:16;;;;;;;57.07;21.80;;;;;;;;;;5070781;28;20048;-63
2022/11/05 02:42:53;;;;;;;38.87;20.83;;;;;;;;;;5070421;28;20387;-63
2022/11/05 02:45:24;;;;;;;33.87;17.70;;;;;;;;;;5070275;28;20075;-63
2022/11/05 02:47:54;;;;;;;44.93;18.03;;;;;;;;;;5065292;28;20049;-63
2022/11/05 02:50:33;;;;;;;40.80;18.83;;;;;;;;;;5070472;28;20048;-64
2022/11/05 02:52:59;;;;;;;37.37;17.27;;;;;;;;;;5058581;28;20126;-64
2022/11/05 02:55:25;;;;;;;33.33;16.57;;;;;;;;;;5050336;28;20210;-64
2022/11/05 02:57:51;;;;;;;41.23;17.57;;;;;;;;;;5062315;28;20051;-63
2022/11/05 03:00:35;;;;;;;39.57;17.37;;;;;;;;;;5067187;28;20052;-63
2022/11/05 03:03:02;;;;;;;38.10;18.50;;;;;;;;;;5050438;28;20462;-64
2022/11/05 03:05:33;;;;;;;38.63;18.00;;;;;;;;;;5051735;28;20395;-63
2022/11/05 03:08:04;;;;;;;40.10;17.10;;;;;;;;;;5057828;28;20045;-63
2022/11/05 03:10:30;;;;;;;33.27;16.17;;;;;;;;;;5069613;28;20036;-63
2022/11/05 03:12:56;;;;;;;32.30;15.67;;;;;;;;;;5069973;28;20056;-63
2022/11/05 03:15:41;;;;;;;30.93;14.63;;;;;;;;;;5069881;28;20067;-63
2022/11/05 03:18:13;;;;;;;30.67;14.23;;;;;;;;;;5063792;28;20502;-63
2022/11/05 03:20:51;;;;;;;58.20;15.90;;;;;;;;;;5056442;28;20102;-63
2022/11/05 03:23:25;;;;;;;23.37;12.23;;;;;;;;;;5048674;28;20123;-63
2022/11/05 03:25:55;;;;;;;25.00;14.13;;;;;;;;;;5049813;28;20052;-63
2022/11/05 03:28:24;;;;;;;27.67;14.07;;;;;;;;;;5049603;28;20102;-63
2022/11/05 03:30:50;;;;;;;29.63;13.13;;;;;;;;;;5049570;28;20414;-64
2022/11/05 03:33:20;;;;;;;30.07;15.13;;;;;;;;;;5049741;28;20087;-64
2022/11/05 03:35:47;;;;;;;31.47;15.10;;;;;;;;;;5054843;28;20052;-63
2022/11/05 03:38:16;;;;;;;22.87;12.43;;;;;;;;;;5069610;28;20040;-63
2022/11/05 03:40:45;;;;;;;26.50;13.13;;;;;;;;;;5068036;28;20052;-63
2022/11/05 03:43:13;;;;;;;32.47;14.87;;;;;;;;;;5069387;28;20041;-63
2022/11/05 03:45:46;;;;;;;33.37;14.23;;;;;;;;;;5058894;28;20043;-63
2022/11/05 03:48:15;;;;;;;22.73;11.80;;;;;;;;;;5068650;28;20410;-63
2022/11/05 03:51:00;;;;;;;24.13;12.67;;;;;;;;;;5068408;28;20049;-64
2022/11/05 03:53:28;;;;;;;31.97;13.07;;;;;;;;;;5050931;28;20141;-64
2022/11/05 03:55:58;;;;;;;32.67;13.83;;;;;;;;;;5069570;28;20043;-64
2022/11/05 03:58:24;;;;;;;35.97;15.27;;;;;;;;;;5059639;28;20037;-63
2022/11/05 04:00:51;;;;;;;28.07;12.93;;;;;;;;;;5065604;28;20111;-64
2022/11/05 04:03:17;;;;;;;52.37;20.00;;;;;;;;;;5069177;28;20044;-63
2022/11/05 04:05:43;;;;;;;23.80;13.27;;;;;;;;;;5068971;28;20051;-63
2022/11/05 04:13:39;;;;;;;21.90;11.23;;;;;;;;;;5048853;28;20049;-63
2022/11/05 04:18:50;;;;;;;28.97;12.73;;;;;;;;;;5061199;28;20052;-63
2022/11/05 04:24:07;;;;;;;31.53;14.00;;;;;;;;;;5064261;28;20049;-63
2022/11/05 04:26:33;;;;;;;21.80;12.27;;;;;;;;;;5066307;28;20044;-63
2022/11/05 04:31:43;;;;;;;29.40;14.17;;;;;;;;;;5048828;28;20132;-64
2022/11/05 04:34:09;;;;;;;25.07;12.43;;;;;;;;;;5046912;28;20037;-63
2022/11/05 04:36:35;;;;;;;22.07;11.47;;;;;;;;;;5047449;28;20098;-64
2022/11/05 04:39:02;;;;;;;23.10;9.43;;;;;;;;;;5055088;28;20041;-63
2022/11/05 04:41:28;;;;;;;22.60;11.13;;;;;;;;;;5048000;28;20535;-63
2022/11/05 04:43:54;;;;;;;23.43;11.03;;;;;;;;;;5048938;28;20560;-64
2022/11/05 04:46:20;;;;;;;24.40;10.90;;;;;;;;;;5048743;28;20423;-64
2022/11/05 04:48:46;;;;;;;26.13;10.83;;;;;;;;;;5060160;28;20748;-64
2022/11/05 04:51:12;;;;;;;23.20;10.67;;;;;;;;;;5067141;28;20055;-64
2022/11/05 04:53:38;;;;;;;18.77;9.70;;;;;;;;;;5068232;28;20570;-64
2022/11/05 04:56:08;;;;;;;18.77;10.73;;;;;;;;;;5068250;28;20455;-64
2022/11/05 04:58:37;;;;;;;21.23;9.77;;;;;;;;;;5064445;28;20048;-63
2022/11/05 05:01:03;;;;;;;18.60;9.27;;;;;;;;;;5046909;28;20056;-64
2022/11/05 05:03:29;;;;;;;22.70;9.93;;;;;;;;;;5047771;28;20045;-64
2022/11/05 05:05:58;;;;;;;21.70;11.07;;;;;;;;;;5048320;28;20594;-64
2022/11/05 05:08:24;;;;;;;22.93;11.13;;;;;;;;;;5055742;28;20529;-63
2022/11/05 05:10:50;;;;;;;17.23;9.10;;;;;;;;;;5069660;28;20399;-64
2022/11/05 05:13:16;;;;;;;16.10;10.20;;;;;;;;;;5072358;28;20052;-63
2022/11/05 05:15:42;;;;;;;19.77;9.63;;;;;;;;;;5071927;28;20048;-63
2022/11/05 05:18:08;;;;;;;15.50;9.47;;;;;;;;;;5066665;28;20041;-63
2022/11/05 05:23:19;;;;;;;28.13;11.83;;;;;;;;;;5052140;28;20076;-63
2022/11/05 05:25:45;;;;;;;22.90;11.37;;;;;;;;;;5051748;28;20041;-63
2022/11/05 05:28:11;;;;;;;19.17;10.23;;;;;;;;;;5051668;28;20049;-63
2022/11/05 05:30:37;;;;;;;29.33;11.47;;;;;;;;;;5051364;28;20045;-64
2022/11/05 05:33:03;;;;;;;25.33;11.47;;;;;;;;;;5051741;28;20044;-63
2022/11/05 05:35:30;;;;;;;24.70;11.27;;;;;;;;;;5062491;28;20040;-63
2022/11/05 05:37:56;;;;;;;24.00;11.20;;;;;;;;;;5091458;28;20078;-63
2022/11/05 05:40:23;;;;;;;22.80;10.33;;;;;;;;;;5091617;28;20052;-63
2022/11/05 05:42:53;;;;;;;25.63;12.87;;;;;;;;;;5083847;28;20449;-63
2022/11/05 05:45:19;;;;;;;29.67;11.80;;;;;;;;;;5060688;28;20032;-64
2022/11/05 05:47:45;;;;;;;35.63;14.73;;;;;;;;;;5054883;28;20088;-64
2022/11/05 05:50:11;;;;;;;24.43;11.20;;;;;;;;;;5067588;28;20041;-64
2022/11/05 05:52:37;;;;;;;26.00;11.30;;;;;;;;;;5071341;28;20391;-63
2022/11/05 05:55:04;;;;;;;22.60;12.73;;;;;;;;;;5064050;28;20071;-63
2022/11/05 05:57:30;;;;;;;26.17;11.87;;;;;;;;;;5050945;28;20521;-64
2022/11/05 05:59:56;;;;;;;24.10;11.33;;;;;;;;;;5052632;28;20127;-63
2022/11/05 06:02:22;;;;;;;19.87;9.93;;;;;;;;;;5051154;28;20041;-63
2022/11/05 06:04:48;;;;;;;21.10;11.40;;;;;;;;;;5051044;28;20048;-63
2022/11/05 06:07:14;;;;;;;24.70;12.93;;;;;;;;;;5051233;28;20060;-64
2022/11/05 06:09:40;;;;;;;16.57;9.53;;;;;;;;;;5051479;28;20061;-64
2022/11/05 06:12:06;;;;;;;22.37;10.90;;;;;;;;;;5050751;28;20113;-64
2022/11/05 06:14:32;;;;;;;27.00;13.20;;;;;;;;;;5051447;28;20049;-63
2022/11/05 06:16:58;;;;;;;17.97;11.17;;;;;;;;;;5053580;28;20110;-63
2022/11/05 06:19:24;;;;;;;20.30;12.67;;;;;;;;;;5053570;28;20044;-64
2022/11/05 06:21:50;;;;;;;21.73;10.87;;;;;;;;;;5069995;28;20044;-63
2022/11/05 06:24:16;;;;;;;25.77;12.43;;;;;;;;;;5071018;28;20045;-64
2022/11/05 06:26:42;;;;;;;25.13;12.20;;;;;;;;;;5070829;28;20051;-64
2022/11/05 06:29:11;;;;;;;28.87;12.63;;;;;;;;;;5056027;28;20044;-64
2022/11/05 06:31:38;;;;;;;19.83;12.30;;;;;;;;;;5050744;28;20041;-64
2022/11/05 06:34:04;;;;;;;36.37;14.80;;;;;;;;;;5050844;28;20423;-64
2022/11/05 06:36:30;;;;;;;24.53;12.23;;;;;;;;;;5050447;28;20094;-64
2022/11/05 06:38:56;;;;;;;20.93;11.30;;;;;;;;;;5051775;28;20055;-64
2022/11/05 06:41:21;;;;;;;32.80;14.30;;;;;;;;;;5049470;28;20045;-64
2022/11/05 06:43:47;;;;;;;24.70;13.60;;;;;;;;;;5049207;28;20041;-64
2022/11/05 06:46:13;;;;;;;26.27;12.97;;;;;;;;;;5051683;28;20045;-64
2022/11/05 06:48:40;;;;;;;25.27;12.77;;;;;;;;;;5052076;28;20522;-64
2022/11/05 06:51:07;;;;;;;23.13;13.20;;;;;;;;;;5064429;28;20412;-64
2022/11/05 06:53:33;;;;;;;21.77;12.10;;;;;;;;;;5070192;28;20457;-64
2022/11/05 06:56:03;;;;;;;25.73;14.27;;;;;;;;;;5069648;28;20045;-63
2022/11/05 06:58:29;;;;;;;45.17;17.33;;;;;;;;;;5068927;28;20126;-64
2022/11/05 07:00:59;;;;;;;31.30;15.27;;;;;;;;;;5062073;28;20040;-64
2022/11/05 07:03:25;;;;;;;29.07;14.77;;;;;;;;;;5070059;28;20048;-65
2022/11/05 07:05:51;;;;;;;28.40;12.13;;;;;;;;;;5068937;28;20446;-64
2022/11/05 07:08:17;;;;;;;31.67;14.80;;;;;;;;;;5051643;28;20049;-64
2022/11/05 07:10:43;;;;;;;32.53;15.43;;;;;;;;;;5052713;28;20049;-64
2022/11/05 07:13:09;;;;;;;32.40;15.40;;;;;;;;;;5068612;28;20057;-64
2022/11/05 07:15:36;;;;;;;23.67;12.90;;;;;;;;;;5069746;28;20588;-64
2022/11/05 07:18:02;;;;;;;28.00;15.40;;;;;;;;;;5034264;28;20052;-64
2022/11/05 07:20:28;;;;;;;27.40;14.63;;;;;;;;;;5051506;28;20139;-64
2022/11/05 07:23:01;;;;;;;32.40;15.50;;;;;;;;;;5062707;28;20055;-64
2022/11/05 07:25:27;;;;;;;37.92;17.00;;;;;;;;;;5066134;28;20499;-64
2022/11/05 07:27:53;;;;;;;26.47;14.63;;;;;;;;;;5065889;28;20039;-64
2022/11/05 07:30:19;;;;;;;26.73;15.03;;;;;;;;;;5063018;28;20048;-64
2022/11/05 07:32:45;;;;;;;28.60;15.00;;;;;;;;;;5059068;28;20490;-65
2022/11/05 07:35:11;;;;;;;27.90;13.83;;;;;;;;;;5054924;28;20502;-64
2022/11/05 07:37:44;;;;;;;24.47;12.97;;;;;;;;;;5053660;28;20033;-64
2022/11/05 07:40:11;;;;;;;44.20;19.50;;;;;;;;;;5059199;28;20509;-64
2022/11/05 07:42:41;;;;;;;27.00;14.70;;;;;;;;;;5057782;28;20053;-64
2022/11/05 07:45:07;;;;;;;24.43;15.03;;;;;;;;;;5056333;28;20114;-64
2022/11/05 07:47:36;;;;;;;34.73;17.27;;;;;;;;;;5053360;28;20047;-64
2022/11/05 07:50:02;;;;;;;21.37;14.07;;;;;;;;;;5062583;28;20048;-64
2022/11/05 07:52:28;;;;;;;32.60;17.73;;;;;;;;;;5062589;28;20052;-64
2022/11/05 07:54:54;;;;;;;32.23;17.27;;;;;;;;;;5061231;28;20052;-65
2022/11/05 07:57:20;;;;;;;30.37;16.67;;;;;;;;;;5063491;28;20040;-64
2022/11/05 07:59:46;;;;;;;30.23;15.83;;;;;;;;;;5063698;28;20098;-64
2022/11/05 08:02:12;;;;;;;31.80;16.13;;;;;;;;;;5066041;28;20403;-65
2022/11/05 08:04:39;;;;;;;20.80;14.00;;;;;;;;;;5065863;28;20602;-64
2022/11/05 08:07:05;;;;;;;27.37;12.77;;;;;;;;;;5065368;28;20049;-64
2022/11/05 08:09:31;;;;;;;31.00;14.67;;;;;;;;;;5060814;28;20048;-64
2022/11/05 08:11:57;;;;;;;29.77;16.73;;;;;;;;;;5064018;28;20503;-64
2022/11/05 08:14:23;;;;;;;29.40;15.93;;;;;;;;;;5067552;28;20037;-64
2022/11/05 08:16:49;;;;;;;25.90;15.97;;;;;;;;;;5063056;28;20036;-64
2022/11/05 08:19:15;;;;;;;23.20;13.03;;;;;;;;;;5064347;28;20063;-64
2022/11/05 08:21:41;;;;;;;26.27;15.13;;;;;;;;;;5058405;28;20060;-65
2022/11/05 08:24:07;;;;;;;18.40;12.33;;;;;;;;;;5064420;28;20059;-65
2022/11/05 08:26:33;;;;;;;26.03;13.37;;;;;;;;;;5066671;28;20173;-65
2022/11/05 08:28:59;;;;;;;19.10;12.80;;;;;;;;;;5060604;28;20103;-64
2022/11/05 08:31:26;;;;;;;24.80;12.93;;;;;;;;;;5066357;28;20047;-65
2022/11/05 08:33:53;;;;;;;20.03;12.17;;;;;;;;;;5067472;28;20040;-64
2022/11/05 08:36:19;;;;;;;22.17;14.13;;;;;;;;;;5066462;28;20044;-64
2022/11/05 08:38:45;;;;;;;15.40;10.50;;;;;;;;;;5061897;28;20818;-64
2022/11/05 08:41:11;;;;;;;17.13;11.10;;;;;;;;;;5068076;28;20056;-64
2022/11/05 08:43:37;;;;;;;20.43;11.57;;;;;;;;;;5050957;28;20049;-65
2022/11/05 08:46:03;;;;;;;16.70;10.90;;;;;;;;;;5060416;28;20048;-65
2022/11/05 08:48:29;;;;;;;16.27;9.83;;;;;;;;;;5066924;28;20044;-64
2022/11/05 08:50:55;;;;;;;21.70;12.87;;;;;;;;;;5068429;28;20048;-63
2022/11/05 08:53:21;;;;;;;18.33;10.43;;;;;;;;;;5067745;28;20048;-63
2022/11/05 08:55:49;;;;;;;16.00;9.90;;;;;;;;;;5067647;28;20045;-64
2022/11/05 08:58:16;;;;;;;16.50;10.43;;;;;;;;;;5061242;28;20128;-63
2022/11/05 09:00:43;;;;;;;17.63;10.00;;;;;;;;;;5047555;28;20045;-63
2022/11/05 09:03:09;;;;;;;15.20;10.50;;;;;;;;;;5047610;28;20537;-63
2022/11/05 09:05:39;;;;;;;19.40;8.90;;;;;;;;;;5047945;28;20087;-63
2022/11/05 09:08:09;;;;;;;13.13;9.30;;;;;;;;;;5065014;28;20053;-63
2022/11/05 09:10:35;;;;;;;16.77;9.33;;;;;;;;;;5067727;28;20076;-63
2022/11/05 09:13:01;;;;;;;15.00;8.50;;;;;;;;;;5066735;28;20053;-64
2022/11/05 09:15:28;;;;;;;13.90;9.30;;;;;;;;;;5067681;28;20048;-63
2022/11/05 09:17:54;;;;;;;14.07;9.63;;;;;;;;;;5051511;28;20131;-63
2022/11/05 09:20:21;;;;;;;13.37;9.33;;;;;;;;;;5047813;28;20406;-63
2022/11/05 09:22:47;;;;;;;15.30;10.13;;;;;;;;;;5047532;28;20087;-63
2022/11/05 09:25:14;;;;;;;17.80;10.63;;;;;;;;;;5047557;28;20077;-63
2022/11/05 09:27:40;;;;;;;12.93;9.40;;;;;;;;;;5046305;28;20127;-63
2022/11/05 09:30:07;;;;;;;16.43;9.77;;;;;;;;;;5046245;28;20526;-63
2022/11/05 09:32:33;;;;;;;13.00;8.80;;;;;;;;;;5047604;28;20039;-63
2022/11/05 09:35:00;;;;;;;10.37;7.20;;;;;;;;;;5046466;28;20056;-63
2022/11/05 09:37:26;;;;;;;13.77;6.20;;;;;;;;;;5047654;28;20063;-63
2022/11/05 09:39:53;;;;;;;9.23;5.80;;;;;;;;;;5047677;28;20595;-64
2022/11/05 09:42:20;;;;;;;8.13;4.50;;;;;;;;;;5048129;28;20124;-65
2022/11/05 09:44:58;;;;;;;6.57;3.87;;;;;;;;;;5047944;28;20080;-64
2022/11/05 09:47:27;;;;;;;8.50;4.17;;;;;;;;;;5047894;28;20499;-65
2022/11/05 09:49:54;;;;;;;7.43;3.70;;;;;;;;;;5047918;28;20047;-65
2022/11/05 09:52:22;;;;;;;13.03;3.30;;;;;;;;;;5046121;28;20052;-64
2022/11/05 09:54:49;;;;;;;9.73;3.23;;;;;;;;;;5047549;28;20044;-64
2022/11/05 09:57:30;;;;;;;10.40;3.40;;;;;;;;;;5051245;28;20045;-64
2022/11/05 10:00:00;;;;;;;4.07;2.40;;;;;;;;;;5051026;28;20053;-64
2022/11/05 10:02:26;;;;;;;6.40;2.77;;;;;;;;;;5050907;28;20052;-63
2022/11/05 10:04:57;;;;;;;8.40;2.83;;;;;;;;;;5068032;28;20430;-64
2022/11/05 10:07:26;;;;;;;8.37;2.47;;;;;;;;;;5070286;28;20048;-64
2022/11/05 10:09:58;;;;;;;9.43;2.67;;;;;;;;;;5069809;28;20056;-63
2022/11/05 10:12:28;;;;;;;10.10;3.07;;;;;;;;;;5070983;28;20057;-63
2022/11/05 10:14:57;;;;;;;5.73;2.40;;;;;;;;;;5070540;28;20526;-63
2022/11/05 10:17:27;;;;;;;7.67;2.30;;;;;;;;;;5057020;28;20124;-64
2022/11/05 10:20:09;;;;;;;8.17;2.83;;;;;;;;;;5050043;28;20506;-64
2022/11/05 10:22:36;;;;;;;9.17;2.37;;;;;;;;;;5050913;28;20091;-64
2022/11/05 10:25:05;;;;;;;10.20;2.30;;;;;;;;;;5050956;28;20080;-64
2022/11/05 10:27:33;;;;;;;5.03;2.10;;;;;;;;;;5050771;28;20121;-64
2022/11/05 10:30:00;;;;;;;6.47;2.17;;;;;;;;;;5050927;28;20166;-65
2022/11/05 10:32:30;;;;;;;5.33;1.87;;;;;;;;;;5068679;28;20061;-65
2022/11/05 10:35:01;;;;;;;6.20;2.30;;;;;;;;;;5070833;28;20040;-65
2022/11/05 10:37:28;;;;;;;5.70;1.60;;;;;;;;;;5070731;28;20118;-65
2022/11/05 10:39:54;;;;;;;7.20;1.80;;;;;;;;;;5070397;28;20044;-65
2022/11/05 10:42:39;;;;;;;6.50;1.90;;;;;;;;;;5068838;28;20121;-63
2022/11/05 10:45:24;;;;;;;4.77;1.30;;;;;;;;;;5069352;28;20048;-63
2022/11/05 10:47:50;;;;;;;3.20;1.50;;;;;;;;;;5050158;28;20048;-63
2022/11/05 10:50:24;;;;;;;4.23;1.63;;;;;;;;;;5050466;28;20048;-64
2022/11/05 10:53:00;;;;;;;5.90;1.77;;;;;;;;;;5050261;28;20062;-64
2022/11/05 10:55:29;;;;;;;4.03;1.33;;;;;;;;;;5049513;28;20053;-64
2022/11/05 10:58:06;;;;;;;9.50;1.87;;;;;;;;;;5050478;28;20037;-64
2022/11/05 11:00:32;;;;;;;7.17;1.77;;;;;;;;;;5049834;28;20059;-64
2022/11/05 11:02:59;;;;;;;6.33;1.30;;;;;;;;;;5048874;28;20517;-64
2022/11/05 11:05:28;;;;;;;4.67;1.77;;;;;;;;;;5049456;28;20048;-64
2022/11/05 11:07:57;;;;;;;8.00;1.90;;;;;;;;;;5049472;28;20083;-63
2022/11/05 11:10:24;;;;;;;4.37;2.00;;;;;;;;;;5049671;28;20055;-63
2022/11/05 11:12:50;;;;;;;4.90;1.60;;;;;;;;;;5049674;28;20132;-63
2022/11/05 11:15:16;;;;;;;5.37;2.10;;;;;;;;;;5058486;28;20040;-63
2022/11/05 11:17:42;;;;;;;7.37;1.90;;;;;;;;;;5069521;28;20055;-63
2022/11/05 11:20:20;;;;;;;4.70;1.63;;;;;;;;;;5069901;28;20047;-63
2022/11/05 11:23:19;;;;;;;5.17;2.10;;;;;;;;;;5069457;28;20051;-63
2022/11/05 11:26:02;;;;;;;6.20;2.17;;;;;;;;;;5045664;28;20056;-62
2022/11/05 11:28:38;;;;;;;6.37;1.97;;;;;;;;;;5068854;28;20072;-63
2022/11/05 11:31:07;;;;;;;6.10;2.03;;;;;;;;;;5069335;28;20048;-63
2022/11/05 11:33:33;;;;;;;5.13;1.80;;;;;;;;;;5069568;28;20045;-63
2022/11/05 11:35:59;;;;;;;6.87;2.37;;;;;;;;;;5069182;28;20044;-63
2022/11/05 11:38:28;;;;;;;6.07;2.00;;;;;;;;;;5068945;28;20491;-63
2022/11/05 11:41:05;;;;;;;6.03;2.13;;;;;;;;;;5068814;28;20053;-63
2022/11/05 11:43:33;;;;;;;4.37;2.20;;;;;;;;;;5058237;28;20060;-63
2022/11/05 11:46:02;;;;;;;7.33;2.63;;;;;;;;;;5049037;28;20078;-63
2022/11/05 11:48:29;;;;;;;6.37;2.60;;;;;;;;;;5048479;28;20045;-63
2022/11/05 11:50:56;;;;;;;4.63;2.60;;;;;;;;;;5048936;28;20041;-63
2022/11/05 11:53:33;;;;;;;7.87;2.60;;;;;;;;;;5048375;28;20056;-63
2022/11/05 11:56:02;;;;;;;6.10;2.60;;;;;;;;;;5048488;28;20055;-63
2022/11/05 11:58:54;;;;;;;6.50;2.43;;;;;;;;;;5048875;28;20033;-63
2022/11/05 12:01:29;;;;;;;7.10;2.30;;;;;;;;;;5047183;28;20057;-63
2022/11/05 12:03:58;;;;;;;6.10;2.23;;;;;;;;;;5048909;28;20095;-63
2022/11/05 12:06:50;;;;;;;7.83;3.27;;;;;;;;;;5047333;28;20041;-63
2022/11/05 12:09:20;;;;;;;6.10;2.83;;;;;;;;;;5047285;28;20053;-63
2022/11/05 12:11:50;;;;;;;8.23;2.90;;;;;;;;;;5049406;28;20061;-62
2022/11/05 12:14:27;;;;;;;10.43;3.47;;;;;;;;;;5068680;28;20055;-62
2022/11/05 12:17:03;;;;;;;11.50;3.10;;;;;;;;;;5068360;28;20110;-62
2022/11/05 12:19:33;;;;;;;7.67;2.60;;;;;;;;;;5066922;28;20110;-62
2022/11/05 12:22:17;;;;;;;9.67;4.83;;;;;;;;;;5057552;28;20044;-62
2022/11/05 12:24:51;;;;;;;7.57;3.03;;;;;;;;;;5061527;28;20521;-62
2022/11/05 12:27:26;;;;;;;8.03;3.00;;;;;;;;;;5068696;28;20076;-62
2022/11/05 12:30:07;;;;;;;9.00;3.20;;;;;;;;;;5083204;28;20082;-62
2022/11/05 12:33:00;;;;;;;8.47;3.13;;;;;;;;;;5062437;28;20166;-62
2022/11/05 12:35:34;;;;;;;6.67;2.70;;;;;;;;;;5032342;28;20049;-61
2022/11/05 12:38:03;;;;;;;6.20;2.37;;;;;;;;;;5048095;28;20044;-62
2022/11/05 12:40:32;;;;;;;6.47;2.50;;;;;;;;;;5053837;28;20430;-61
2022/11/05 12:43:04;;;;;;;6.27;2.20;;;;;;;;;;5067077;28;20156;-61
2022/11/05 12:45:33;;;;;;;6.47;2.30;;;;;;;;;;5067965;28;20474;-61
2022/11/05 12:48:02;;;;;;;5.70;2.27;;;;;;;;;;5058616;28;20049;-61
2022/11/05 12:50:52;;;;;;;9.80;2.20;;;;;;;;;;5047473;28;20495;-61
2022/11/05 12:53:37;;;;;;;6.50;2.70;;;;;;;;;;5043373;28;20458;-61
2022/11/05 12:56:06;;;;;;;6.27;2.70;;;;;;;;;;5045741;28;20067;-61
2022/11/05 12:58:37;;;;;;;10.70;2.93;;;;;;;;;;5044729;28;20107;-61
2022/11/05 13:01:11;;;;;;;6.37;3.00;;;;;;;;;;5045772;28;20594;-61
2022/11/05 13:03:43;;;;;;;8.30;3.60;;;;;;;;;;5045562;28;20041;-61
2022/11/05 13:06:12;;;;;;;10.53;3.40;;;;;;;;;;5045511;28;20049;-61
2022/11/05 13:08:51;;;;;;;8.90;3.77;;;;;;;;;;5046829;28;20053;-61
2022/11/05 13:11:23;;;;;;;6.93;3.57;;;;;;;;;;5047729;28;20052;-61
2022/11/05 13:13:52;;;;;;;9.57;4.30;;;;;;;;;;5047249;28;20478;-61
2022/11/05 13:16:18;;;;;;;13.07;5.03;;;;;;;;;;5047491;28;20070;-61
2022/11/05 13:19:14;;;;;;;9.70;4.50;;;;;;;;;;5047578;28;20099;-61
2022/11/05 13:21:41;;;;;;;14.90;5.27;;;;;;;;;;5042383;28;20052;-61
2022/11/05 13:24:26;;;;;;;8.07;3.67;;;;;;;;;;5047270;28;20045;-61
2022/11/05 13:27:03;;;;;;;9.63;4.40;;;;;;;;;;5047370;28;20052;-61
2022/11/05 13:29:40;;;;;;;8.83;3.70;;;;;;;;;;5046601;28;20045;-61
2022/11/05 13:32:13;;;;;;;10.97;4.60;;;;;;;;;;5066915;28;20503;-61
2022/11/05 13:34:39;;;;;;;7.82;4.47;;;;;;;;;;5071128;28;20068;-61
2022/11/05 13:40:03;;;;;;;9.93;4.60;;;;;;;;;;5070905;28;20053;-61
2022/11/05 13:42:48;;;;;;;7.73;3.77;;;;;;;;;;5069518;28;20403;-61
2022/11/05 13:45:32;;;;;;;11.37;4.10;;;;;;;;;;5067447;28;20084;-61
2022/11/05 13:48:17;;;;;;;7.43;3.67;;;;;;;;;;5050721;28;20170;-61
2022/11/05 13:51:01;;;;;;;8.43;4.33;;;;;;;;;;5049414;28;20044;-61
2022/11/05 13:53:27;;;;;;;13.63;4.07;;;;;;;;;;5050661;28;20095;-61
2022/11/05 13:56:12;;;;;;;13.33;3.80;;;;;;;;;;5050519;28;20075;-61
2022/11/05 13:58:57;;;;;;;10.97;3.90;;;;;;;;;;5050322;28;20338;-61
2022/11/05 14:01:32;;;;;;;8.47;3.60;;;;;;;;;;5050810;28;20133;-61
2022/11/05 14:03:58;;;;;;;9.13;3.67;;;;;;;;;;5050729;28;20436;-61
2022/11/05 14:06:27;;;;;;;7.67;3.40;;;;;;;;;;5050470;28;20045;-60
2022/11/05 14:08:56;;;;;;;9.50;4.13;;;;;;;;;;5049007;28;20136;-61
2022/11/05 14:11:27;;;;;;;7.23;3.97;;;;;;;;;;5050739;28;20566;-61
2022/11/05 14:13:58;;;;;;;9.77;4.47;;;;;;;;;;5048808;28;20059;-61
2022/11/05 14:16:25;;;;;;;9.30;3.70;;;;;;;;;;5050590;28;20048;-61
2022/11/05 14:19:14;;;;;;;6.47;3.83;;;;;;;;;;5050135;28;20045;-61
2022/11/05 14:21:51;;;;;;;6.40;3.40;;;;;;;;;;5048946;28;20395;-61
2022/11/05 14:24:23;;;;;;;7.90;4.10;;;;;;;;;;5049660;28;20045;-61
2022/11/05 14:27:01;;;;;;;6.60;3.30;;;;;;;;;;5050253;28;20045;-61
2022/11/05 14:29:41;;;;;;;7.20;3.17;;;;;;;;;;5064614;28;20049;-61
2022/11/05 14:32:19;;;;;;;6.73;3.63;;;;;;;;;;5070208;28;20037;-61
2022/11/05 14:34:47;;;;;;;6.33;3.20;;;;;;;;;;5068208;28;20040;-61
2022/11/05 14:37:13;;;;;;;7.13;3.20;;;;;;;;;;5069922;28;20106;-61
2022/11/05 14:39:39;;;;;;;7.40;3.40;;;;;;;;;;5069830;28;20044;-61
2022/11/05 14:42:05;;;;;;;11.57;2.97;;;;;;;;;;5068701;28;20185;-61
2022/11/05 14:44:33;;;;;;;9.30;3.37;;;;;;;;;;5049744;28;20412;-61
2022/11/05 14:47:04;;;;;;;8.13;3.30;;;;;;;;;;5049967;28;20342;-61
2022/11/05 14:49:31;;;;;;;7.30;3.17;;;;;;;;;;5049348;28;20087;-61
2022/11/05 14:51:59;;;;;;;14.43;4.17;;;;;;;;;;5049471;28;20045;-61
2022/11/05 14:54:29;;;;;;;8.30;3.53;;;;;;;;;;5048518;28;20132;-60
2022/11/05 14:56:57;;;;;;;6.60;3.27;;;;;;;;;;5048993;28;20076;-61
2022/11/05 14:59:23;;;;;;;9.77;3.47;;;;;;;;;;5049872;28;20756;-61
2022/11/05 15:01:49;;;;;;;7.77;2.97;;;;;;;;;;5049381;28;20049;-61
2022/11/05 15:04:15;;;;;;;8.43;3.73;;;;;;;;;;5049669;28;20506;-60
2022/11/05 15:07:01;;;;;;;11.07;3.63;;;;;;;;;;5049058;28;20036;-61
2022/11/05 15:09:42;;;;;;;10.70;4.00;;;;;;;;;;5065232;28;20459;-61
2022/11/05 15:12:24;;;;;;;7.50;3.87;;;;;;;;;;5069366;28;20084;-60
2022/11/05 15:14:53;;;;;;;10.67;4.10;;;;;;;;;;5069528;28;20048;-61
2022/11/05 15:17:28;;;;;;;7.83;3.90;;;;;;;;;;5068493;28;20055;-61
2022/11/05 15:19:55;;;;;;;7.50;4.50;;;;;;;;;;5069372;28;20066;-61
2022/11/05 15:22:30;;;;;;;9.03;4.70;;;;;;;;;;5062105;28;20048;-61
2022/11/05 15:24:56;;;;;;;11.63;4.33;;;;;;;;;;5049344;28;20110;-61
2022/11/05 15:27:28;;;;;;;10.90;4.63;;;;;;;;;;5048301;28;20060;-61